createdAt,value
2022-08-14T00:01:54.575Z,39.11
2022-08-14T00:04:34.072Z,39.15
2022-08-14T00:07:06.884Z,38.84
2022-08-14T00:09:55.328Z,38.87
2022-08-14T00:12:24.225Z,39.03
2022-08-14T00:14:53.095Z,38.96
2022-08-14T00:17:22.871Z,38.95
2022-08-14T00:19:51.715Z,39.04
2022-08-14T00:22:44.174Z,39.27
2022-08-14T00:25:07.932Z,39.24
2022-08-14T00:27:37.740Z,39.66
2022-08-14T00:30:14.212Z,39.25
2022-08-14T00:32:52.399Z,39.48
2022-08-14T00:35:43.016Z,38.60
2022-08-14T00:38:15.721Z,39.08
2022-08-14T00:40:46.110Z,39.47
2022-08-14T00:43:13.646Z,39.45
2022-08-14T00:45:42.723Z,38.99
2022-08-14T00:48:10.406Z,39.06
2022-08-14T00:50:37.930Z,39.17
2022-08-14T00:53:05.753Z,38.95
2022-08-14T00:55:41.324Z,39.36
2022-08-14T00:58:32.846Z,39.13
2022-08-14T01:01:09.646Z,39.15
2022-08-14T01:03:42.361Z,39.29
2022-08-14T01:06:13.173Z,39.60
2022-08-14T01:08:58.070Z,39.48
2022-08-14T01:11:35.554Z,39.56
2022-08-14T01:14:05.086Z,39.53
2022-08-14T01:16:52.895Z,39.46
2022-08-14T01:19:38.493Z,39.72
2022-08-14T01:22:12.274Z,39.74
2022-08-14T01:24:41.597Z,40.07
2022-08-14T01:27:19.379Z,40.29
2022-08-14T01:30:01.450Z,40.28
2022-08-14T01:32:35.378Z,39.93
2022-08-14T01:35:17.358Z,39.86
2022-08-14T01:37:56.555Z,40.22
2022-08-14T01:40:37.196Z,40.06
2022-08-14T01:43:14.603Z,40.47
2022-08-14T01:45:48.732Z,40.55
2022-08-14T01:48:16.116Z,39.93
2022-08-14T01:50:47.834Z,40.32
2022-08-14T01:53:15.398Z,40.40
2022-08-14T01:55:42.683Z,40.14
2022-08-14T01:58:19.850Z,40.36
2022-08-14T02:00:54.375Z,40.36
2022-08-14T02:03:30.063Z,40.36
2022-08-14T02:05:59.514Z,40.42
2022-08-14T02:08:35.217Z,40.46
2022-08-14T02:11:22.099Z,40.55
2022-08-14T02:14:06.870Z,40.91
2022-08-14T02:16:39.262Z,40.38
2022-08-14T02:19:21.260Z,40.61
2022-08-14T02:21:54.480Z,40.85
2022-08-14T02:24:39.088Z,41.24
2022-08-14T02:28:24.750Z,41.20
2022-08-14T02:30:00.997Z,41.02
2022-08-14T02:32:46.312Z,41.29
2022-08-14T02:35:18.944Z,41.63
2022-08-14T02:37:50.609Z,41.50
2022-08-14T02:40:20.523Z,41.48
2022-08-14T02:42:59.789Z,41.85
2022-08-14T02:45:38.933Z,41.38
2022-08-14T02:49:01.842Z,41.71
2022-08-14T02:51:09.054Z,41.45
2022-08-14T02:53:39.657Z,41.13
2022-08-14T02:56:29.615Z,41.39
2022-08-14T02:59:01.892Z,41.61
2022-08-14T03:01:43.302Z,42.03
2022-08-14T03:04:17.728Z,41.30
2022-08-14T03:06:57.769Z,41.89
2022-08-14T03:10:25.071Z,42.12
2022-08-14T03:12:31.699Z,42.18
2022-08-14T03:15:03.031Z,42.30
2022-08-14T03:17:31.600Z,42.25
2022-08-14T03:20:11.012Z,42.42
2022-08-14T03:22:41.834Z,42.30
2022-08-14T03:25:10.722Z,42.56
2022-08-14T03:27:47.801Z,42.85
2022-08-14T03:30:15.493Z,42.80
2022-08-14T03:32:50.331Z,42.53
2022-08-14T03:35:19.718Z,43.00
2022-08-14T03:39:13.605Z,42.77
2022-08-14T03:40:33.697Z,43.00
2022-08-14T03:43:00.471Z,43.05
2022-08-14T03:45:34.517Z,43.12
2022-08-14T03:48:11.074Z,43.35
2022-08-14T03:50:56.743Z,43.31
2022-08-14T03:53:23.525Z,43.33
2022-08-14T03:55:50.522Z,43.52
2022-08-14T03:58:23.644Z,43.84
2022-08-14T04:01:02.423Z,43.51
2022-08-14T04:03:29.388Z,43.96
2022-08-14T04:05:56.729Z,43.92
2022-08-14T04:08:30.659Z,44.04
2022-08-14T04:11:02.982Z,44.44
2022-08-14T04:13:39.401Z,44.34
2022-08-14T04:16:12.593Z,44.76
2022-08-14T04:18:43.295Z,45.12
2022-08-14T04:21:12.708Z,45.08
2022-08-14T04:23:40.679Z,45.40
2022-08-14T04:26:14.634Z,45.44
2022-08-14T04:29:01.859Z,45.53
2022-08-14T04:32:58.519Z,45.78
2022-08-14T04:34:27.317Z,45.74
2022-08-14T04:37:17.502Z,45.93
2022-08-14T04:40:08.720Z,45.63
2022-08-14T04:42:54.802Z,45.86
2022-08-14T04:45:23.611Z,45.82
2022-08-14T04:48:12.745Z,45.91
2022-08-14T04:50:54.201Z,46.03
2022-08-14T04:53:35.515Z,46.26
2022-08-14T04:56:06.104Z,45.97
2022-08-14T04:58:39.038Z,46.19
2022-08-14T05:01:12.928Z,46.57
2022-08-14T05:03:46.562Z,46.31
2022-08-14T05:06:37.082Z,46.42
2022-08-14T05:09:00.709Z,45.75
2022-08-14T05:11:28.091Z,45.52
2022-08-14T05:14:16.905Z,45.19
2022-08-14T05:16:43.580Z,44.88
2022-08-14T05:19:18.058Z,44.62
2022-08-14T05:21:59.783Z,44.09
2022-08-14T05:24:29.465Z,44.12
2022-08-14T05:26:56.356Z,43.56
2022-08-14T05:29:23.601Z,43.30
2022-08-14T05:31:50.471Z,43.03
2022-08-14T05:34:27.779Z,42.69
2022-08-14T05:37:01.924Z,41.99
2022-08-14T05:39:31.275Z,41.91
2022-08-14T05:41:58.947Z,41.39
2022-08-14T05:44:30.839Z,40.88
2022-08-14T05:46:58.891Z,40.71
2022-08-14T05:49:33.421Z,40.83
2022-08-14T05:52:02.309Z,40.69
2022-08-14T05:54:35.683Z,40.67
2022-08-14T05:57:04.565Z,40.72
2022-08-14T05:59:39.355Z,40.66
2022-08-14T06:02:10.801Z,40.62
2022-08-14T06:04:48.050Z,40.14
2022-08-14T06:07:16.854Z,40.14
2022-08-14T06:09:43.703Z,39.20
2022-08-14T06:12:55.545Z,39.48
2022-08-14T06:15:08.242Z,38.66
2022-08-14T06:17:59.237Z,38.38
2022-08-14T06:20:28.197Z,38.12
2022-08-14T06:22:56.278Z,37.91
2022-08-14T06:25:25.084Z,37.79
2022-08-14T06:27:53.611Z,37.87
2022-08-14T06:30:30.401Z,37.69
2022-08-14T06:33:13.682Z,37.46
2022-08-14T06:35:43.041Z,37.16
2022-08-14T06:38:19.903Z,36.85
2022-08-14T06:40:50.670Z,36.44
2022-08-14T06:43:20.801Z,36.24
2022-08-14T06:45:53.864Z,36.29
2022-08-14T06:48:24.210Z,35.46
2022-08-14T06:50:53.826Z,35.60
2022-08-14T06:53:22.341Z,35.50
2022-08-14T06:56:00.578Z,34.83
2022-08-14T06:58:30.759Z,34.83
2022-08-14T07:01:23.186Z,34.68
2022-08-14T07:04:18.855Z,33.93
2022-08-14T07:06:50.788Z,33.57
2022-08-14T07:09:23.038Z,33.58
2022-08-14T07:11:51.552Z,33.18
2022-08-14T07:14:18.762Z,32.72
2022-08-14T07:16:45.725Z,31.92
2022-08-14T07:19:12.546Z,31.74
2022-08-14T07:21:39.565Z,31.69
2022-08-14T07:24:09.467Z,31.40
2022-08-14T07:26:38.737Z,31.10
2022-08-14T07:29:07.819Z,31.20
2022-08-14T07:31:34.700Z,30.80
2022-08-14T07:34:04.101Z,31.00
2022-08-14T07:36:31.253Z,30.61
2022-08-14T07:39:03.586Z,30.62
2022-08-14T07:41:42.406Z,30.57
2022-08-14T07:44:28.708Z,30.34
2022-08-14T07:46:58.278Z,30.08
2022-08-14T07:49:25.647Z,29.64
2022-08-14T07:51:52.530Z,29.84
2022-08-14T07:54:23.458Z,29.61
2022-08-14T07:57:00.630Z,29.85
2022-08-14T07:59:40.947Z,29.74
2022-08-14T08:02:19.781Z,30.22
2022-08-14T08:04:59.028Z,29.93
2022-08-14T08:07:31.132Z,30.07
2022-08-14T08:10:00.944Z,29.95
2022-08-14T08:12:32.453Z,29.65
2022-08-14T08:15:06.981Z,29.49
2022-08-14T08:17:42.365Z,30.03
2022-08-14T08:20:24.624Z,29.67
2022-08-14T08:22:58.262Z,29.92
2022-08-14T08:25:39.989Z,29.96
2022-08-14T08:28:21.828Z,30.64
2022-08-14T08:31:01.690Z,30.89
2022-08-14T08:33:39.155Z,31.03
2022-08-14T08:36:12.482Z,31.42
2022-08-14T08:39:17.386Z,31.44
2022-08-14T08:41:27.915Z,31.30
2022-08-14T08:44:05.769Z,31.70
2022-08-14T08:46:44.660Z,31.76
2022-08-14T08:49:14.813Z,31.56
2022-08-14T08:51:42.924Z,31.91
2022-08-14T08:54:19.626Z,32.22
2022-08-14T08:56:51.997Z,32.13
2022-08-14T08:59:34.433Z,32.01
2022-08-14T09:02:10.208Z,32.13
2022-08-14T09:04:45.797Z,32.48
2022-08-14T09:07:27.201Z,32.19
2022-08-14T09:09:59.379Z,32.63
2022-08-14T09:12:33.346Z,32.51
2022-08-14T09:15:03.437Z,33.06
2022-08-14T09:17:30.338Z,32.30
2022-08-14T09:19:58.185Z,32.68
2022-08-14T09:22:35.963Z,32.55
2022-08-14T09:25:19.553Z,32.74
2022-08-14T09:27:46.925Z,32.56
2022-08-14T09:30:32.954Z,32.07
2022-08-14T09:33:09.186Z,32.31
2022-08-14T09:36:51.650Z,32.61
2022-08-14T09:40:10.884Z,32.56
2022-08-14T09:43:22.602Z,32.82
2022-08-14T09:45:53.539Z,32.55
2022-08-14T09:48:30.681Z,32.78
2022-08-14T09:54:12.914Z,32.75
2022-08-14T09:56:31.851Z,32.54
2022-08-14T09:59:15.158Z,32.50
2022-08-14T10:01:46.199Z,32.74
2022-08-14T10:04:35.977Z,32.65
2022-08-14T10:07:08.182Z,32.37
2022-08-14T10:10:00.075Z,32.24
2022-08-14T10:12:52.899Z,32.40
2022-08-14T10:15:29.920Z,32.08
2022-08-14T10:18:18.264Z,32.14
2022-08-14T10:21:04.509Z,32.13
2022-08-14T10:23:44.365Z,31.78
2022-08-14T10:26:23.018Z,31.82
2022-08-14T10:29:20.262Z,31.69
2022-08-14T10:31:59.363Z,31.75
2022-08-14T10:34:36.593Z,31.85
2022-08-14T10:37:14.183Z,31.76
2022-08-14T10:40:01.373Z,31.49
2022-08-14T10:42:43.729Z,31.90
2022-08-14T10:45:25.687Z,31.37
2022-08-14T10:48:08.677Z,31.28
2022-08-14T10:50:45.799Z,31.31
2022-08-14T10:53:14.010Z,31.51
2022-08-14T10:55:44.907Z,31.13
2022-08-14T10:58:14.116Z,30.94
2022-08-14T11:00:56.874Z,31.24
2022-08-14T11:03:26.672Z,30.88
2022-08-14T11:06:19.693Z,30.65
2022-08-14T11:08:48.735Z,30.70
2022-08-14T11:11:19.381Z,29.99
2022-08-14T11:13:46.585Z,29.55
2022-08-14T11:16:15.382Z,29.26
2022-08-14T11:18:51.316Z,29.12
2022-08-14T11:21:23.143Z,29.00
2022-08-14T11:23:53.442Z,29.11
2022-08-14T11:26:22.668Z,28.94
2022-08-14T11:28:52.163Z,28.84
2022-08-14T11:31:24.184Z,29.31
2022-08-14T11:33:57.610Z,29.35
2022-08-14T11:37:02.797Z,28.83
2022-08-14T11:39:33.486Z,29.01
2022-08-14T11:42:57.101Z,28.98
2022-08-14T11:44:53.624Z,29.08
2022-08-14T11:47:24.669Z,28.68
2022-08-14T11:49:51.852Z,28.76
2022-08-14T11:52:19.287Z,29.31
2022-08-14T11:54:58.359Z,28.91
2022-08-14T11:57:25.847Z,28.87
2022-08-14T12:00:19.390Z,28.34
2022-08-14T12:03:03.411Z,28.47
2022-08-14T12:05:42.204Z,27.98
2022-08-14T12:08:12.008Z,28.11
2022-08-14T12:10:43.997Z,27.95
2022-08-14T12:13:17.474Z,28.25
2022-08-14T12:15:47.434Z,28.18
2022-08-14T12:18:29.457Z,28.42
2022-08-14T12:21:00.067Z,28.46
2022-08-14T12:23:27.674Z,28.15
2022-08-14T12:26:39.283Z,28.03
2022-08-14T12:29:16.070Z,28.00
2022-08-14T12:31:47.413Z,28.05
2022-08-14T12:34:20.458Z,27.73
2022-08-14T12:36:49.897Z,27.90
2022-08-14T12:39:23.837Z,27.73
2022-08-14T12:41:57.302Z,28.11
2022-08-14T12:44:37.311Z,28.45
2022-08-14T12:47:16.837Z,27.83
2022-08-14T12:49:57.838Z,27.47
2022-08-14T12:52:45.347Z,27.65
2022-08-14T12:55:32.624Z,27.55
2022-08-14T12:58:28.803Z,27.34
2022-08-14T13:01:16.054Z,27.18
2022-08-14T13:03:45.643Z,26.68
2022-08-14T13:06:14.566Z,26.58
2022-08-14T13:08:46.453Z,26.70
2022-08-14T13:11:24.037Z,26.67
2022-08-14T13:13:58.807Z,26.73
2022-08-14T13:16:33.797Z,26.24
2022-08-14T13:19:10.950Z,26.16
2022-08-14T13:21:58.636Z,25.98
2022-08-14T13:24:27.692Z,26.12
2022-08-14T13:26:58.145Z,25.95
2022-08-14T13:29:29.671Z,25.47
2022-08-14T13:31:58.695Z,25.37
2022-08-14T13:34:28.428Z,25.58
2022-08-14T13:37:03.741Z,25.36
2022-08-14T13:39:35.923Z,25.24
2022-08-14T13:42:13.679Z,25.53
2022-08-14T13:44:42.854Z,25.25
2022-08-14T13:47:12.023Z,24.56
2022-08-14T13:49:58.092Z,24.78
2022-08-14T13:52:51.439Z,24.83
2022-08-14T13:55:15.571Z,24.85
2022-08-14T13:57:49.469Z,24.54
2022-08-14T14:00:21.572Z,24.63
2022-08-14T14:02:48.849Z,24.01
2022-08-14T14:05:20.948Z,24.21
2022-08-14T14:07:53.072Z,24.32
2022-08-14T14:10:28.046Z,24.39
2022-08-14T14:12:56.435Z,24.27
2022-08-14T14:15:33.793Z,24.70
2022-08-14T14:18:29.670Z,24.52
2022-08-14T14:20:58.847Z,24.15
2022-08-14T14:23:26.802Z,24.17
2022-08-14T14:25:57.439Z,24.21
2022-08-14T14:28:34.247Z,24.03
2022-08-14T14:31:05.971Z,24.39
2022-08-14T14:33:51.083Z,24.09
2022-08-14T14:36:26.391Z,24.30
2022-08-14T14:39:03.984Z,24.04
2022-08-14T14:41:43.722Z,24.42
2022-08-14T14:44:15.625Z,24.13
2022-08-14T14:46:50.174Z,24.09
2022-08-14T14:49:21.660Z,23.94
2022-08-14T14:51:51.326Z,23.93
2022-08-14T14:54:31.155Z,23.89
2022-08-14T14:57:02.542Z,23.83
2022-08-14T14:59:33.559Z,24.04
2022-08-14T15:02:06.239Z,24.19
2022-08-14T15:04:43.822Z,24.04
2022-08-14T15:07:12.373Z,23.92
2022-08-14T15:09:39.464Z,24.18
2022-08-14T15:12:27.954Z,24.58
2022-08-14T15:14:58.162Z,24.39
2022-08-14T15:17:40.922Z,24.49
2022-08-14T15:20:17.376Z,24.60
2022-08-14T15:23:00.665Z,24.39
2022-08-14T15:25:31.662Z,24.51
2022-08-14T15:28:00.771Z,24.30
2022-08-14T15:30:32.088Z,24.47
2022-08-14T15:32:59.629Z,24.18
2022-08-14T15:35:28.061Z,24.33
2022-08-14T15:38:08.674Z,24.62
2022-08-14T15:40:40.942Z,24.55
2022-08-14T15:43:13.331Z,24.13
2022-08-14T15:45:41.270Z,24.32
2022-08-14T15:48:12.619Z,24.36
2022-08-14T15:50:50.803Z,23.97
2022-08-14T15:53:22.190Z,24.11
2022-08-14T15:55:54.430Z,24.01
2022-08-14T15:58:26.181Z,23.85
2022-08-14T16:01:13.035Z,23.50
2022-08-14T16:03:42.504Z,23.58
2022-08-14T16:06:17.626Z,23.00
2022-08-14T16:08:57.647Z,23.14
2022-08-14T16:11:25.380Z,23.04
2022-08-14T16:13:57.614Z,23.28
2022-08-14T16:16:47.055Z,23.24
2022-08-14T16:19:19.235Z,23.12
2022-08-14T16:22:01.586Z,23.33
2022-08-14T16:25:02.442Z,23.33
2022-08-14T16:31:51.096Z,23.99
2022-08-14T16:34:46.244Z,23.86
2022-08-14T16:37:09.093Z,24.13
2022-08-14T16:39:41.830Z,23.85
2022-08-14T16:43:02.399Z,23.64
2022-08-14T16:45:01.150Z,23.51
2022-08-14T16:47:35.171Z,23.64
2022-08-14T16:50:08.904Z,23.48
2022-08-14T16:52:44.456Z,23.37
2022-08-14T16:55:21.428Z,23.79
2022-08-14T16:57:54.932Z,23.75
2022-08-14T17:00:43.864Z,24.06
2022-08-14T17:03:16.496Z,23.66
2022-08-14T17:05:46.685Z,23.57
2022-08-14T17:08:41.865Z,23.59
2022-08-14T17:11:11.159Z,24.06
2022-08-14T17:13:57.832Z,23.97
2022-08-14T17:16:37.849Z,24.18
2022-08-14T17:19:14.380Z,23.85
2022-08-14T17:21:47.058Z,24.02
2022-08-14T17:24:55.797Z,24.23
2022-08-14T17:27:08.161Z,24.00
2022-08-14T17:29:54.528Z,23.94
2022-08-14T17:32:29.310Z,24.11
2022-08-14T17:35:16.274Z,24.22
2022-08-14T17:37:48.348Z,24.06
2022-08-14T17:40:24.150Z,24.18
2022-08-14T17:43:00.871Z,24.05
2022-08-14T17:45:38.843Z,24.38
2022-08-14T17:49:14.123Z,24.21
2022-08-14T17:51:15.328Z,24.63
2022-08-14T17:53:53.600Z,24.66
2022-08-14T17:56:32.917Z,24.85
2022-08-14T17:59:05.869Z,25.24
2022-08-14T18:01:45.850Z,25.14
2022-08-14T18:04:27.964Z,25.56
2022-08-14T18:07:16.831Z,25.71
2022-08-14T18:09:57.250Z,25.86
2022-08-14T18:12:36.859Z,25.67
2022-08-14T18:15:17.483Z,26.21
2022-08-14T18:17:52.742Z,25.96
2022-08-14T18:21:41.218Z,26.27
2022-08-14T18:23:13.032Z,26.13
2022-08-14T18:25:48.653Z,26.32
2022-08-14T18:28:18.370Z,26.54
2022-08-14T18:31:22.917Z,26.42
2022-08-14T18:34:11.973Z,26.66
2022-08-14T18:36:57.133Z,26.73
2022-08-14T18:40:02.442Z,26.73
2022-08-14T18:42:24.405Z,27.03
2022-08-14T18:45:01.064Z,26.75
2022-08-14T18:47:30.490Z,27.09
2022-08-14T18:50:31.066Z,27.23
2022-08-14T18:53:10.946Z,27.06
2022-08-14T18:55:52.805Z,27.70
2022-08-14T18:58:57.183Z,27.75
2022-08-14T19:01:29.779Z,27.85
2022-08-14T19:04:00.817Z,27.53
2022-08-14T19:06:41.953Z,27.54
2022-08-14T19:09:58.869Z,27.72
2022-08-14T19:12:53.395Z,27.81
2022-08-14T19:15:35.983Z,28.28
2022-08-14T19:18:29.289Z,28.40
2022-08-14T19:21:13.141Z,28.64
2022-08-14T19:23:43.910Z,28.31
2022-08-14T19:26:37.519Z,28.49
2022-08-14T19:29:37.875Z,28.61
2022-08-14T19:32:36.506Z,28.44
2022-08-14T19:35:18.363Z,29.05
2022-08-14T19:37:54.965Z,29.14
2022-08-14T19:40:42.685Z,29.15
2022-08-14T19:43:55.394Z,29.23
2022-08-14T19:46:39.092Z,29.25
2022-08-14T19:48:58.097Z,29.43
2022-08-14T19:51:25.601Z,29.41
2022-08-14T19:54:13.661Z,29.49
2022-08-14T19:56:45.651Z,29.03
2022-08-14T19:59:19.080Z,29.18
2022-08-14T20:01:52.363Z,29.03
2022-08-14T20:04:46.085Z,29.49
2022-08-14T20:07:59.871Z,29.04
2022-08-14T20:11:06.963Z,29.27
2022-08-14T20:13:14.285Z,29.60
2022-08-14T20:15:47.188Z,29.68
2022-08-14T20:18:32.928Z,29.72
2022-08-14T20:21:05.188Z,29.75
2022-08-14T20:23:38.576Z,29.85
2022-08-14T20:26:30.442Z,29.43
2022-08-14T20:29:04.448Z,29.86
2022-08-14T20:31:37.335Z,29.65
2022-08-14T20:34:19.171Z,29.41
2022-08-14T20:37:09.843Z,29.65
2022-08-14T20:39:54.852Z,29.70
2022-08-14T20:42:43.556Z,30.06
2022-08-14T20:45:23.516Z,29.73
2022-08-14T20:48:00.814Z,29.60
2022-08-14T20:50:29.755Z,29.58
2022-08-14T20:53:05.985Z,29.56
2022-08-14T20:55:41.211Z,30.05
2022-08-14T20:58:41.862Z,29.97
2022-08-14T21:01:18.283Z,29.82
2022-08-14T21:03:56.844Z,30.20
2022-08-14T21:07:23.921Z,29.58
2022-08-14T21:10:04.667Z,30.05
2022-08-14T21:12:34.894Z,30.10
2022-08-14T21:15:11.173Z,30.13
2022-08-14T21:17:38.392Z,30.37
2022-08-14T21:20:25.937Z,30.28
2022-08-14T21:23:00.310Z,30.16
2022-08-14T21:25:29.007Z,30.37
2022-08-14T21:28:04.257Z,30.41
2022-08-14T21:30:51.908Z,30.66
2022-08-14T21:33:21.532Z,30.76
2022-08-14T21:35:55.478Z,30.50
2022-08-14T21:38:33.649Z,30.96
2022-08-14T21:41:43.556Z,30.94
2022-08-14T21:44:17.116Z,30.71
2022-08-14T21:46:54.143Z,30.71
2022-08-14T21:49:25.481Z,30.88
2022-08-14T21:52:49.759Z,31.12
2022-08-14T21:54:58.368Z,31.09
2022-08-14T21:57:56.237Z,31.23
2022-08-14T22:00:31.563Z,31.17
2022-08-14T22:03:09.047Z,31.04
2022-08-14T22:05:39.709Z,31.31
2022-08-14T22:08:12.423Z,31.37
2022-08-14T22:10:44.727Z,31.25
2022-08-14T22:13:17.512Z,31.38
2022-08-14T22:15:49.805Z,31.89
2022-08-14T22:18:20.114Z,31.64
2022-08-14T22:20:53.847Z,31.54
2022-08-14T22:23:24.959Z,31.74
2022-08-14T22:25:53.521Z,31.70
2022-08-14T22:28:32.933Z,31.87
2022-08-14T22:31:10.536Z,31.83
2022-08-14T22:33:39.202Z,32.25
2022-08-14T22:36:26.343Z,32.11
2022-08-14T22:38:54.710Z,32.01
2022-08-14T22:41:26.877Z,31.98
2022-08-14T22:44:06.526Z,32.02
2022-08-14T22:46:33.614Z,32.23
2022-08-14T22:49:15.369Z,32.04
2022-08-14T22:51:49.352Z,32.37
2022-08-14T22:54:53.065Z,32.57
2022-08-14T22:57:05.903Z,32.26
2022-08-14T22:59:38.982Z,32.86
2022-08-14T23:02:15.819Z,32.68
2022-08-14T23:04:54.295Z,32.65
2022-08-14T23:07:24.985Z,32.87
2022-08-14T23:10:32.640Z,32.79
2022-08-14T23:12:54.494Z,32.68
2022-08-14T23:15:24.395Z,33.14
2022-08-14T23:17:56.535Z,33.12
2022-08-14T23:20:23.600Z,33.08
2022-08-14T23:22:56.864Z,32.90
2022-08-14T23:25:57.484Z,32.92
2022-08-14T23:28:33.346Z,32.97
2022-08-14T23:31:09.231Z,33.08
2022-08-14T23:33:46.069Z,33.21
2022-08-14T23:36:31.840Z,33.20
2022-08-14T23:39:10.528Z,33.32
2022-08-14T23:41:52.690Z,33.39
2022-08-14T23:44:23.704Z,33.29
2022-08-14T23:46:56.612Z,33.40
2022-08-14T23:49:25.629Z,33.87
2022-08-14T23:52:49.423Z,33.57
2022-08-14T23:54:48.208Z,33.75
2022-08-14T23:57:19.024Z,33.66
2022-08-14T23:59:54.418Z,33.93
